This is the latest recevied weather packets stored in our database for station/object DL4JCP-6. If no packets are shown the sender has not sent any weather packets the latest 10 day(s).
| Time | Temp. | Humidity | Pressure | Rain* | Wind** | Luminosity | Snow |
|---|---|---|---|---|---|---|---|
| 1777907895 | 21.67° C | 50% | 1014.2 hPa | 0 mm | - | - | - |
| 1777906994 | 21.67° C | 47% | 1014.1 hPa | 0 mm | - | - | - |
| 1777906092 | 21.11° C | 49% | 1014.1 hPa | 0 mm | - | - | - |
| 1777905191 | 20.56° C | 49% | 1014.1 hPa | 0 mm | - | - | - |
| 1777904292 | 21.11° C | 47% | 1014.3 hPa | 0 mm | - | - | - |
| 1777903394 | 20.56° C | 48% | 1014.3 hPa | 0 mm | - | - | - |
| 1777902491 | 20.56° C | 50% | 1014.4 hPa | 0 mm | - | - | - |
| 1777901594 | 21.67° C | 47% | 1014.7 hPa | 0 mm | - | - | - |
| 1777900694 | 20.56° C | 50% | 1014.5 hPa | 0 mm | - | - | - |
| 1777899794 | 20.56° C | 49% | 1014.6 hPa | 0 mm | - | - | - |
| 1777898894 | 20° C | 49% | 1014.6 hPa | 0 mm | - | - | - |
| 1777897995 | 20.56° C | 50% | 1014.6 hPa | 0 mm | - | - | - |
| 1777897091 | 20° C | 50% | 1014.7 hPa | 0 mm | - | - | - |
| 1777896191 | 20.56° C | 48% | 1014.8 hPa | 0 mm | - | - | - |
| 1777895355 | 20° C | 51% | 1014.8 hPa | 0 mm | - | - | - |
| 1777895291 | 20° C | 51% | 1014.8 hPa | 0 mm | - | - | - |
| 1777895051 | 20° C | 51% | 1014.7 hPa | 0 mm | - | - | - |
| 1777894751 | 20° C | 51% | 1014.8 hPa | 0 mm | - | - | - |
| 1777894450 | 20° C | 50% | 1014.8 hPa | 0 mm | - | - | - |
| 1777894391 | 20° C | 50% | 1014.8 hPa | 0 mm | - | - | - |
| 1777894150 | 20° C | 51% | 1014.8 hPa | 0 mm | - | - | - |
| 1777893850 | 20° C | 52% | 1014.8 hPa | 0 mm | - | - | - |
| 1777893550 | 19.44° C | 54% | 1014.7 hPa | 0 mm | - | - | - |
| 1777893491 | 19.44° C | 54% | 1014.7 hPa | 0 mm | - | - | - |
| 1777893250 | 19.44° C | 51% | 1014.8 hPa | 0 mm | - | - | - |
* Rain latest hour (hover to see other rain measurements)
** Current wind speed in m/s (hover to see current wind gust speed)